M I D A S
Marine Information and Data Acquisition System
Tripno 1733 of the Zeeleeuw from 2009-07-09 06:46:27 to 2009-07-09 17:26:28
Back to CruiseResearch ActivitiesStationsMapUnderway DataData graphs

EquipmentUnitsComment
TimeDGPSUTC
LatitudeDGPSDM.mWGS84
LongitudeDGPSDM.mWGS84
HeadingGyrodeg 
SOGDGPSknotsSpeed over ground
COGDGPSdegCourse over ground
DepthEcho soundermeters200 kHz
Missing or incorrect values are displayed as -999
Navigation data collected by the RV Zeeleeuw from 2009-07-09 06:41:00 to 2009-07-09 17:34:14
                                                                                    Next 1000 lines
Time Latitude Longitude Heading SOG COG Depth
2009-07-09 06:41:10 51°13.662 2°55.956 111.2 0.6 291 5.1
2009-07-09 06:41:15 51°13.662 2°55.954 111.5 1.1 290 5.1
2009-07-09 06:41:20 51°13.663 2°55.951 111.7 1.4 295 5.1
2009-07-09 06:41:25 51°13.664 2°55.947 111.9 1.6 290 5.2
2009-07-09 06:41:30 51°13.665 2°55.944 112 1.9 295 -999
2009-07-09 06:41:36 51°13.666 2°55.938 112.5 2.2 293 -999
2009-07-09 06:41:42 51°13.668 2°55.932 113 2.6 296 -999
2009-07-09 06:41:47 51°13.67 2°55.926 113.3 2.9 295 -999
2009-07-09 06:41:53 51°13.673 2°55.919 113.3 3.1 297 -999
2009-07-09 06:41:58 51°13.674 2°55.912 113.3 3.1 296 -999
2009-07-09 06:42:03 51°13.677 2°55.906 112.9 3.2 296 -999
2009-07-09 06:42:09 51°13.679 2°55.898 111.9 3.3 293 -999
2009-07-09 06:42:14 51°13.68 2°55.891 110 3.4 291 -999
2009-07-09 06:42:18 51°13.682 2°55.885 108.2 3.5 289 -999
2009-07-09 06:42:23 51°13.683 2°55.877 106.7 3.6 288 -999
2009-07-09 06:42:28 51°13.684 2°55.87 106.1 3.5 287 -999
2009-07-09 06:42:34 51°13.686 2°55.861 105.4 3.4 286 -999
2009-07-09 06:42:38 51°13.687 2°55.855 105.1 3.4 285 -999
2009-07-09 06:42:43 51°13.688 2°55.848 104.4 3.4 285 -999
2009-07-09 06:42:48 51°13.689 2°55.841 103.7 3.4 285 -999
2009-07-09 06:42:54 51°13.691 2°55.832 102.5 3.4 284 -999
2009-07-09 06:42:58 51°13.692 2°55.826 101.5 3.4 284 -999
2009-07-09 06:43:03 51°13.692 2°55.819 100.5 3.3 283 -999
2009-07-09 06:43:08 51°13.694 2°55.812 99.8 3.2 283 -999
2009-07-09 06:43:13 51°13.695 2°55.805 98.7 3.1 282 -999
2009-07-09 06:43:18 51°13.695 2°55.799 97.3 3 282 -999
2009-07-09 06:43:23 51°13.696 2°55.792 96 2.9 280 -999
2009-07-09 06:43:28 51°13.697 2°55.786 94.9 2.8 281 -999
2009-07-09 06:43:33 51°13.697 2°55.78 93.5 2.7 279 -999
2009-07-09 06:43:38 51°13.698 2°55.775 91.6 2.6 279 -999
2009-07-09 06:43:43 51°13.698 2°55.769 90.5 2.5 278 -999
2009-07-09 06:43:48 51°13.698 2°55.764 89.1 2.4 278 -999
2009-07-09 06:43:53 51°13.699 2°55.76 87.9 2 277 -999
2009-07-09 06:43:58 51°13.699 2°55.756 86.2 1.6 277 -999
2009-07-09 06:44:03 51°13.7 2°55.754 83.1 1.2 280 -999
2009-07-09 06:44:09 51°13.7 2°55.751 79.7 0.9 286 -999
2009-07-09 06:44:13 51°13.701 2°55.751 75.8 0.6 299 12.2
2009-07-09 06:44:18 51°13.701 2°55.75 72.7 0.5 323 11.6
2009-07-09 06:44:23 51°13.701 2°55.75 70.3 0.5 346 12
2009-07-09 06:44:28 51°13.702 2°55.75 66.1 0.5 4 12
2009-07-09 06:44:33 51°13.703 2°55.75 61.8 0.6 16 12
2009-07-09 06:44:38 51°13.704 2°55.75 56.6 0.5 4 -999
2009-07-09 06:44:43 51°13.704 2°55.75 52.3 0.4 345 -999
2009-07-09 06:44:48 51°13.704 2°55.749 49 0.4 287 -999
2009-07-09 06:44:54 51°13.704 2°55.748 45.8 0.6 252 -999
2009-07-09 06:44:58 51°13.704 2°55.746 42.7 0.8 240 12
2009-07-09 06:45:03 51°13.703 2°55.745 40.6 0.8 240 11.6
2009-07-09 06:45:08 51°13.702 2°55.743 38.7 0.9 228 12
2009-07-09 06:45:13 51°13.701 2°55.742 37.1 1 233 11.6
2009-07-09 06:45:18 51°13.701 2°55.74 35.1 0.9 224 11.5
2009-07-09 06:45:22 51°13.7 2°55.739 33.5 0.9 234 11.8
2009-07-09 06:45:27 51°13.7 2°55.738 32.2 0.6 230 12
2009-07-09 06:45:32 51°13.699 2°55.737 30.8 0.5 254 -999
2009-07-09 06:45:38 51°13.699 2°55.737 28.3 0.3 266 4.6
2009-07-09 06:45:42 51°13.699 2°55.736 25.6 0.4 305 4.5
2009-07-09 06:45:47 51°13.7 2°55.736 23 0.5 335 4.6
2009-07-09 06:45:52 51°13.701 2°55.736 19.7 0.7 353 11.9
2009-07-09 06:45:57 51°13.703 2°55.735 15.3 1 352 11.6
2009-07-09 06:46:02 51°13.704 2°55.735 10.4 1.3 352 11.5
2009-07-09 06:46:06 51°13.706 2°55.734 5 1.6 349 11.4
2009-07-09 06:46:11 51°13.709 2°55.733 359.4 1.8 348 11.5
2009-07-09 06:46:16 51°13.712 2°55.732 353.4 2.2 343 11.4
2009-07-09 06:46:21 51°13.715 2°55.73 347.4 2.5 340 11.5
2009-07-09 06:46:26 51°13.719 2°55.727 342.7 3.1 338 11.4
2009-07-09 06:46:31 51°13.724 2°55.724 339.3 3.6 336 11.3
2009-07-09 06:46:35 51°13.728 2°55.721 336.9 4.1 335 11
2009-07-09 06:46:40 51°13.734 2°55.716 334.9 4.7 332 11.2
2009-07-09 06:46:46 51°13.741 2°55.709 334 5.2 333 11.2
2009-07-09 06:46:50 51°13.747 2°55.704 334 5.7 332 11.2
2009-07-09 06:46:55 51°13.755 2°55.698 334.1 6.1 332 10.9
2009-07-09 06:47:00 51°13.763 2°55.691 333.9 6.5 332 10.7
2009-07-09 06:47:05 51°13.772 2°55.684 333.8 6.9 332 9.9
2009-07-09 06:47:10 51°13.781 2°55.676 334 7.4 332 10.6
2009-07-09 06:47:15 51°13.79 2°55.669 334.1 7.6 332 10.6
2009-07-09 06:47:20 51°13.801 2°55.662 334.8 7.9 333 10.7
2009-07-09 06:47:25 51°13.811 2°55.653 335.2 8.1 333 10.4
2009-07-09 06:47:30 51°13.821 2°55.646 335.5 8.4 334 10.4
2009-07-09 06:47:35 51°13.832 2°55.637 336.1 8.5 334 9.8
2009-07-09 06:47:39 51°13.841 2°55.631 336.4 8.6 335 10.1
2009-07-09 06:47:45 51°13.854 2°55.62 336.8 8.8 335 10.4
2009-07-09 06:47:50 51°13.865 2°55.612 337 8.9 335 9.4
2009-07-09 06:47:55 51°13.876 2°55.603 336.4 9 333 10
2009-07-09 06:47:59 51°13.885 2°55.596 336.1 9.1 334 10.4
2009-07-09 06:48:05 51°13.899 2°55.585 336.2 9.2 334 10.4
2009-07-09 06:48:10 51°13.91 2°55.576 336.3 9.4 334 10.4
2009-07-09 06:48:15 51°13.922 2°55.567 336.3 9.4 334 10.4
2009-07-09 06:48:19 51°13.932 2°55.559 336.4 9.6 335 10.3
2009-07-09 06:48:25 51°13.946 2°55.548 336.1 9.6 333 10.3
2009-07-09 06:48:30 51°13.958 2°55.539 335.9 9.7 334 10.3
2009-07-09 06:48:35 51°13.97 2°55.53 336.6 9.7 335 10.4
2009-07-09 06:48:40 51°13.983 2°55.52 336.5 9.7 334 10.3
2009-07-09 06:48:45 51°13.995 2°55.511 336.7 9.8 335 10.3
2009-07-09 06:48:50 51°14.007 2°55.502 336.9 9.8 335 10.3
2009-07-09 06:48:55 51°14.019 2°55.493 336.9 9.8 335 10.1
2009-07-09 06:48:59 51°14.029 2°55.485 336.8 9.8 335 10.2
2009-07-09 06:49:05 51°14.044 2°55.474 336.8 9.8 335 10.3
2009-07-09 06:49:10 51°14.056 2°55.465 336.9 9.7 335 10.3
2009-07-09 06:49:14 51°14.066 2°55.458 337.2 9.7 335 10.3
2009-07-09 06:49:20 51°14.081 2°55.447 337.2 9.7 334 10.3
2009-07-09 06:49:25 51°14.093 2°55.437 337 9.7 334 10.3
2009-07-09 06:49:30 51°14.105 2°55.428 336.4 9.7 333 10.2
2009-07-09 06:49:35 51°14.116 2°55.418 335.7 9.7 332 10
2009-07-09 06:49:39 51°14.126 2°55.41 334.8 9.7 332 10.2
2009-07-09 06:49:45 51°14.14 2°55.397 333.7 9.6 331 10.2
2009-07-09 06:49:50 51°14.151 2°55.387 333.5 9.6 331 10.3
2009-07-09 06:49:55 51°14.163 2°55.376 332.7 9.6 329 10.4
2009-07-09 06:49:59 51°14.172 2°55.367 330.9 9.6 327 10.2
2009-07-09 06:50:05 51°14.185 2°55.352 329.6 9.7 326 10.3
2009-07-09 06:50:10 51°14.196 2°55.34 328.1 9.7 324 10.3
2009-07-09 06:50:14 51°14.205 2°55.329 327 9.7 324 10.2
2009-07-09 06:50:19 51°14.216 2°55.317 326.7 9.7 323 10.1
2009-07-09 06:50:25 51°14.228 2°55.301 325.7 9.8 322 10.2
2009-07-09 06:50:30 51°14.239 2°55.287 324.4 9.8 321 9.9
2009-07-09 06:50:35 51°14.249 2°55.272 322.4 9.8 318 10.2
2009-07-09 06:50:40 51°14.259 2°55.258 320.2 9.8 317 10.1
2009-07-09 06:50:45 51°14.268 2°55.242 317.7 9.8 314 9.9
2009-07-09 06:50:50 51°14.277 2°55.226 315.8 9.8 313 10.3
2009-07-09 06:50:55 51°14.286 2°55.209 313.9 9.9 311 10.1
2009-07-09 06:50:59 51°14.293 2°55.196 311.9 9.9 309 10
2009-07-09 06:51:05 51°14.304 2°55.175 311 9.9 309 9.9
2009-07-09 06:51:10 51°14.312 2°55.158 311.1 9.9 309 9.7
2009-07-09 06:51:14 51°14.319 2°55.144 310.5 10 308 10
2009-07-09 06:51:20 51°14.329 2°55.122 309.7 10.2 308 10.3
2009-07-09 06:51:25 51°14.338 2°55.105 309.5 10.2 308 9.9
2009-07-09 06:51:30 51°14.347 2°55.087 309.7 10.3 308 10
2009-07-09 06:51:34 51°14.354 2°55.072 309.8 10.3 307 9.6
2009-07-09 06:51:40 51°14.364 2°55.05 309.2 10.3 306 10.1
2009-07-09 06:51:44 51°14.371 2°55.034 307.6 10.4 304 9.6
2009-07-09 06:51:50 51°14.38 2°55.011 305.7 10.6 302 9.6
2009-07-09 06:51:55 51°14.388 2°54.991 305.6 10.5 304 9.5
2009-07-09 06:52:00 51°14.397 2°54.971 306.4 10.7 303 9.4
2009-07-09 06:52:05 51°14.405 2°54.951 307.2 10.8 303 9.4
2009-07-09 06:52:10 51°14.413 2°54.931 308 11.1 303 9.9
2009-07-09 06:52:15 51°14.421 2°54.91 307.1 11.1 301 9.9
2009-07-09 06:52:20 51°14.43 2°54.889 306.3 11.3 302 9.6
2009-07-09 06:52:25 51°14.438 2°54.867 306.2 11.4 302 9.4
2009-07-09 06:52:30 51°14.446 2°54.846 306.8 11.4 302 9.5
2009-07-09 06:52:35 51°14.455 2°54.825 307.8 11.5 302 9.8
2009-07-09 06:52:40 51°14.463 2°54.803 307.6 11.6 301 9.9
2009-07-09 06:52:45 51°14.471 2°54.779 307.3 11.8 299 9.8
2009-07-09 06:52:50 51°14.479 2°54.757 306.6 11.8 299 9.4
2009-07-09 06:52:54 51°14.485 2°54.739 306.6 11.8 299 9.7
2009-07-09 06:53:00 51°14.495 2°54.711 307.3 11.9 300 9.9
2009-07-09 06:53:05 51°14.503 2°54.688 307.6 12 299 9.7
2009-07-09 06:53:10 51°14.511 2°54.665 306.9 11.9 299 9.5
2009-07-09 06:53:14 51°14.518 2°54.647 306.4 12 299 9.6
2009-07-09 06:53:19 51°14.526 2°54.624 307 12 299 9.4
2009-07-09 06:53:25 51°14.535 2°54.596 307.6 12 299 9.6
2009-07-09 06:53:30 51°14.542 2°54.571 305.3 12.2 295 9.9
2009-07-09 06:53:34 51°14.548 2°54.552 303.6 12.1 296 9.8
2009-07-09 06:53:40 51°14.557 2°54.522 303 12.2 295 9.8
2009-07-09 06:53:45 51°14.564 2°54.498 302 12.2 295 9.8
2009-07-09 06:53:50 51°14.571 2°54.473 301.6 12.3 293 9.9
2009-07-09 06:53:54 51°14.576 2°54.453 300.5 12.3 293 9.8
2009-07-09 06:53:59 51°14.583 2°54.428 300.1 12.3 293 9.9
2009-07-09 06:54:04 51°14.589 2°54.403 300.2 12.3 292 9.8
2009-07-09 06:54:10 51°14.597 2°54.373 299.7 12.3 292 9.8
2009-07-09 06:54:14 51°14.602 2°54.352 299.3 12.4 291 9.7
2009-07-09 06:54:19 51°14.608 2°54.327 299 12.3 292 9.7
2009-07-09 06:54:24 51°14.615 2°54.302 299.5 12.3 292 9.9
2009-07-09 06:54:30 51°14.623 2°54.272 299.6 12.3 294 10.2
2009-07-09 06:54:34 51°14.629 2°54.253 301.5 12.3 296 10.2
2009-07-09 06:54:39 51°14.636 2°54.228 302.7 12.3 295 10.1
2009-07-09 06:54:44 51°14.645 2°54.205 305.2 12 301 10
2009-07-09 06:54:50 51°14.654 2°54.177 306.4 12.1 299 10.2
2009-07-09 06:54:54 51°14.662 2°54.161 309.9 11.9 306 10
2009-07-09 06:55:00 51°14.674 2°54.135 312.8 11.9 306 9.9
2009-07-09 06:55:04 51°14.682 2°54.119 315.8 11.8 312 10
2009-07-09 06:55:10 51°14.696 2°54.096 318.7 11.7 312 9.6
2009-07-09 06:55:14 51°14.705 2°54.083 321.6 11.2 319 9.2
2009-07-09 06:55:19 51°14.717 2°54.068 328 11.1 322 9.4
2009-07-09 06:55:25 51°14.733 2°54.053 332.6 11 329 9.5
2009-07-09 06:55:30 51°14.746 2°54.04 336.8 11 329 9.3
2009-07-09 06:55:34 51°14.757 2°54.031 338.1 10.9 332 9.4
2009-07-09 06:55:39 51°14.77 2°54.022 342.3 10.8 338 9.3
2009-07-09 06:55:44 51°14.785 2°54.014 347.8 10.8 341 8.9
2009-07-09 06:55:50 51°14.802 2°54.005 349.2 10.6 342 8.7
2009-07-09 06:55:54 51°14.813 2°54.002 352 10.4 350 8.9
2009-07-09 06:55:59 51°14.827 2°53.999 357.5 10.3 354 9
2009-07-09 06:56:05 51°14.844 2°53.999 4.4 10.2 -999 8.7
2009-07-09 06:56:10 51°14.858 2°54.002 9.1 10.1 5 9
2009-07-09 06:56:14 51°14.869 2°54.002 10.6 10.2 4 8.9
2009-07-09 06:56:18 51°14.88 2°54.006 14.6 10.1 12 8.5
2009-07-09 06:56:24 51°14.896 2°54.013 19.2 10 17 8.6
2009-07-09 06:56:30 51°14.912 2°54.021 22.6 9.9 19 8.8
2009-07-09 06:56:34 51°14.922 2°54.028 26.2 9.8 26 8.9
2009-07-09 06:56:39 51°14.934 2°54.039 31.7 9.8 30 8.6
2009-07-09 06:56:44 51°14.945 2°54.051 36.9 9.7 34 8.2
2009-07-09 06:56:50 51°14.958 2°54.066 40.4 9.7 36 8.7
2009-07-09 06:56:54 51°14.967 2°54.076 41.3 9.7 38 8.1
2009-07-09 06:56:59 51°14.977 2°54.091 43.2 9.8 40 8.2
2009-07-09 06:57:04 51°14.987 2°54.105 45.5 9.8 45 8.3
2009-07-09 06:57:10 51°14.998 2°54.125 48.6 9.8 46 8
2009-07-09 06:57:14 51°15.005 2°54.137 50.7 9.7 48 8
2009-07-09 06:57:20 51°15.015 2°54.157 52.7 9.7 50 7.8
2009-07-09 06:57:24 51°15.022 2°54.171 53.2 9.9 50 7.8
2009-07-09 06:57:30 51°15.033 2°54.191 53.9 9.8 51 7.9
2009-07-09 06:57:34 51°15.039 2°54.205 55.9 9.9 56 7.6
2009-07-09 06:57:40 51°15.049 2°54.226 56.4 9.8 50 7.7
2009-07-09 06:57:44 51°15.056 2°54.239 55.5 9.7 55 7.5
2009-07-09 06:57:50 51°15.066 2°54.259 57.4 9.7 48 7.9
2009-07-09 06:57:54 51°15.074 2°54.272 52.9 9.8 50 8.2
2009-07-09 06:57:59 51°15.082 2°54.289 53.5 10 48 9.4
2009-07-09 06:58:05 51°15.093 2°54.309 52.5 10.2 49 9.6
2009-07-09 06:58:10 51°15.103 2°54.326 52 10.3 46 9.4
2009-07-09 06:58:14 51°15.111 2°54.339 50.4 10.3 45 9.5
2009-07-09 06:58:19 51°15.121 2°54.356 50.1 10.3 48 9.5
2009-07-09 06:58:24 51°15.131 2°54.372 50.1 10.3 44 9.2
2009-07-09 06:58:30 51°15.143 2°54.392 49.5 10.2 50 8.2
2009-07-09 06:58:34 51°15.15 2°54.404 50.2 10.1 44 7.8
2009-07-09 06:58:39 51°15.16 2°54.42 49.8 9.9 46 7.6
2009-07-09 06:58:44 51°15.169 2°54.436 50.2 9.9 46 7.9
2009-07-09 06:58:50 51°15.182 2°54.453 48.4 9.9 42 7.7
2009-07-09 06:58:54 51°15.19 2°54.465 47.2 9.9 43 7.5
2009-07-09 06:58:58 51°15.198 2°54.478 46.6 10 40 7.6
2009-07-09 06:59:04 51°15.211 2°54.494 45.1 9.9 41 8.2
2009-07-09 06:59:09 51°15.222 2°54.508 43.8 9.9 40 8.1
2009-07-09 06:59:14 51°15.233 2°54.521 42.1 10 34 7.8
2009-07-09 06:59:20 51°15.245 2°54.539 43.4 10 42 7.9
2009-07-09 06:59:24 51°15.255 2°54.547 42.2 10.1 32 7.8
2009-07-09 06:59:30 51°15.268 2°54.564 40.3 10 39 8
2009-07-09 06:59:35 51°15.279 2°54.576 41.5 9.9 33 7.7
2009-07-09 06:59:40 51°15.29 2°54.59 40.6 10 38 7.9
2009-07-09 06:59:45 51°15.302 2°54.602 40.7 10.1 33 8.1
2009-07-09 06:59:50 51°15.313 2°54.616 40.3 10.1 39 8.2
2009-07-09 06:59:54 51°15.323 2°54.624 40.2 10.1 31 8.2
2009-07-09 06:59:59 51°15.334 2°54.638 39.6 10.1 37 8
2009-07-09 07:00:04 51°15.346 2°54.649 38.8 10 31 7.9
2009-07-09 07:00:10 51°15.36 2°54.664 38.2 10 34 7.8
2009-07-09 07:00:14 51°15.369 2°54.674 38.6 10.1 34 8.6
2009-07-09 07:00:19 51°15.381 2°54.686 38.2 10.1 33 8.2
2009-07-09 07:00:24 51°15.392 2°54.699 38.6 10.1 34 7.9
2009-07-09 07:00:30 51°15.406 2°54.714 38.8 10.1 34 8.1
2009-07-09 07:00:34 51°15.416 2°54.723 38.6 10.1 32 8
2009-07-09 07:00:39 51°15.427 2°54.735 38.4 10.1 34 8
2009-07-09 07:00:44 51°15.439 2°54.747 38.7 10 33 8.1
2009-07-09 07:00:50 51°15.453 2°54.762 38.5 10.1 33 8.3
2009-07-09 07:00:54 51°15.462 2°54.771 38.4 10.1 32 8.2
2009-07-09 07:00:59 51°15.474 2°54.784 38.4 10.1 33 8.1
2009-07-09 07:01:04 51°15.486 2°54.796 38.7 10.1 33 8.4
2009-07-09 07:01:10 51°15.5 2°54.81 38.5 10.1 34 8.1
2009-07-09 07:01:14 51°15.509 2°54.82 38.8 10 32 7.9
2009-07-09 07:01:19 51°15.521 2°54.833 39.3 10 34 8.2
2009-07-09 07:01:24 51°15.533 2°54.845 39.2 10 33 8.3
2009-07-09 07:01:30 51°15.547 2°54.859 38.6 10 33 8.1
2009-07-09 07:01:35 51°15.558 2°54.872 39.3 10.1 34 8.5
2009-07-09 07:01:39 51°15.568 2°54.882 39.3 10.1 33 8.4
2009-07-09 07:01:44 51°15.579 2°54.895 40 10 35 8.5
2009-07-09 07:01:50 51°15.593 2°54.909 40 10.1 32 8.4
2009-07-09 07:01:54 51°15.602 2°54.92 40 10.1 35 8.7
2009-07-09 07:01:59 51°15.614 2°54.931 39.2 10.1 33 8.4
2009-07-09 07:02:04 51°15.625 2°54.944 39.8 10.1 36 8.8
2009-07-09 07:02:10 51°15.639 2°54.958 39.6 10 32 8.3
2009-07-09 07:02:14 51°15.648 2°54.97 40.9 10.1 37 8.7
2009-07-09 07:02:19 51°15.66 2°54.981 40.1 10.1 32 8.7
2009-07-09 07:02:24 51°15.671 2°54.995 39.8 10 37 8.6
2009-07-09 07:02:30 51°15.686 2°55.008 39.5 10 30 8.5
2009-07-09 07:02:34 51°15.694 2°55.019 40 10 36 8.6
2009-07-09 07:02:39 51°15.706 2°55.031 39.7 10.1 33 8.7
2009-07-09 07:02:45 51°15.72 2°55.046 39.5 10 35 8.5
2009-07-09 07:02:50 51°15.73 2°55.061 42.4 9.9 42 9
2009-07-09 07:02:54 51°15.739 2°55.071 43.9 10.1 37 8.7
2009-07-09 07:02:59 51°15.748 2°55.088 46.7 9.9 48 9.1
2009-07-09 07:03:04 51°15.759 2°55.101 48.1 9.9 42 8.6
2009-07-09 07:03:10 51°15.769 2°55.122 50.4 9.9 50 8.9
2009-07-09 07:03:14 51°15.776 2°55.135 52.4 9.9 50 8.9
2009-07-09 07:03:19 51°15.784 2°55.153 54.9 9.8 57 9.2
2009-07-09 07:03:25 51°15.794 2°55.174 57.5 9.7 55 8.9
2009-07-09 07:03:30 51°15.799 2°55.194 61.1 9.8 64 8.9
2009-07-09 07:03:34 51°15.805 2°55.209 63.2 9.9 59 8.9
2009-07-09 07:03:39 51°15.811 2°55.228 63.7 9.6 65 8.7
2009-07-09 07:03:45 51°15.817 2°55.251 67.6 9.6 68 8.7
2009-07-09 07:03:50 51°15.823 2°55.271 67.6 9.9 65 8.8
2009-07-09 07:03:55 51°15.828 2°55.291 67.6 9.8 70 9.1
2009-07-09 07:03:59 51°15.832 2°55.307 69.9 9.5 68 8.6
2009-07-09 07:04:05 51°15.837 2°55.331 71.1 9.7 71 9
2009-07-09 07:04:10 51°15.843 2°55.351 70.8 10 67 8.8
2009-07-09 07:04:14 51°15.846 2°55.368 70.3 9.7 71 8.7
2009-07-09 07:04:19 51°15.85 2°55.388 72 9.5 73 8.8
2009-07-09 07:04:24 51°15.855 2°55.408 71.8 9.8 69 8.7
2009-07-09 07:04:30 51°15.86 2°55.433 72 9.9 71 8.8
2009-07-09 07:04:34 51°15.864 2°55.449 72.4 9.7 70 8.5
2009-07-09 07:04:39 51°15.868 2°55.47 72.7 9.7 72 8.7
2009-07-09 07:04:44 51°15.873 2°55.489 71.4 9.8 66 8.5
2009-07-09 07:04:50 51°15.878 2°55.514 71.3 9.8 72 8.7
2009-07-09 07:04:54 51°15.883 2°55.53 70.7 9.8 66 8.5
2009-07-09 07:04:59 51°15.888 2°55.55 70.3 9.9 71 8.8
2009-07-09 07:05:05 51°15.894 2°55.574 69.8 9.8 67 8.5
2009-07-09 07:05:10 51°15.899 2°55.595 70.3 9.8 68 8.5
2009-07-09 07:05:14 51°15.903 2°55.611 70 9.9 67 8.8
2009-07-09 07:05:19 51°15.909 2°55.63 68.6 9.7 64 8.3
2009-07-09 07:05:24 51°15.913 2°55.651 69.8 9.8 71 8.6
2009-07-09 07:05:30 51°15.921 2°55.674 68.3 9.9 63 8.4
2009-07-09 07:05:34 51°15.924 2°55.691 68.1 9.8 69 8.5
2009-07-09 07:05:38 51°15.929 2°55.706 68.8 9.9 67 8.9
2009-07-09 07:05:44 51°15.936 2°55.73 68.4 9.8 65 8.7
2009-07-09 07:05:50 51°15.942 2°55.754 67.8 9.6 66 8.5
2009-07-09 07:05:55 51°15.947 2°55.774 68.9 9.8 69 8.8
2009-07-09 07:05:59 51°15.953 2°55.789 67.8 10 62 8.6
2009-07-09 07:06:04 51°15.958 2°55.809 67.2 9.8 67 8.7
2009-07-09 07:06:10 51°15.966 2°55.832 66.9 9.6 61 8.5
2009-07-09 07:06:14 51°15.97 2°55.848 66.7 9.8 66 8.6
2009-07-09 07:06:19 51°15.977 2°55.866 65.5 9.8 59 8.6
2009-07-09 07:06:24 51°15.983 2°55.886 65.4 9.8 68 8.7
2009-07-09 07:06:30 51°15.991 2°55.908 66.5 9.8 59 8.3
2009-07-09 07:06:34 51°15.995 2°55.924 65.1 9.8 65 8.5
2009-07-09 07:06:40 51°16.002 2°55.947 66.4 9.7 62 8.4
2009-07-09 07:06:44 51°16.008 2°55.962 65.8 9.7 63 8.4
2009-07-09 07:06:50 51°16.014 2°55.986 66.9 9.8 64 8.7
2009-07-09 07:06:54 51°16.02 2°56.001 65.9 9.9 64 8.9
2009-07-09 07:07:00 51°16.027 2°56.024 65.9 9.7 63 8.5
2009-07-09 07:07:05 51°16.032 2°56.044 66.9 9.7 64 8.3
2009-07-09 07:07:10 51°16.039 2°56.063 66.1 9.8 62 8.5
2009-07-09 07:07:14 51°16.043 2°56.078 65.8 9.7 63 8.5
2009-07-09 07:07:19 51°16.05 2°56.097 65.6 9.7 63 8.3
2009-07-09 07:07:25 51°16.056 2°56.121 66.6 9.9 64 8.8
2009-07-09 07:07:30 51°16.064 2°56.139 65.2 9.8 62 8.5
2009-07-09 07:07:34 51°16.067 2°56.155 66.1 9.6 65 8.4
2009-07-09 07:07:39 51°16.074 2°56.174 65.9 9.7 61 8.9
2009-07-09 07:07:44 51°16.08 2°56.193 65.2 9.6 61 8.3
2009-07-09 07:07:50 51°16.087 2°56.217 66.9 9.9 66 9
2009-07-09 07:07:54 51°16.093 2°56.231 65.3 9.8 56 8.3
2009-07-09 07:07:59 51°16.098 2°56.251 65.6 9.8 70 8.8
2009-07-09 07:08:04 51°16.105 2°56.269 66.8 9.7 59 8.6
2009-07-09 07:08:10 51°16.111 2°56.293 66.1 9.7 69 8.6
2009-07-09 07:08:14 51°16.116 2°56.307 66.5 9.8 59 8.2
2009-07-09 07:08:20 51°16.124 2°56.331 65 9.8 64 8.5
2009-07-09 07:08:24 51°16.129 2°56.346 66 9.8 63 8.6
2009-07-09 07:08:30 51°16.136 2°56.369 65.5 9.7 63 8.8
2009-07-09 07:08:34 51°16.141 2°56.384 65.4 9.8 63 8.4
2009-07-09 07:08:39 51°16.148 2°56.403 65.4 9.8 61 8.5
2009-07-09 07:08:45 51°16.155 2°56.426 64.9 9.7 63 8.2
2009-07-09 07:08:50 51°16.161 2°56.446 67.1 9.8 64 8.5
2009-07-09 07:08:54 51°16.167 2°56.46 65.5 9.8 60 8.3
2009-07-09 07:09:00 51°16.173 2°56.484 65.6 9.8 64 8.4
2009-07-09 07:09:05 51°16.18 2°56.503 65.7 9.9 60 8.6
2009-07-09 07:09:10 51°16.186 2°56.521 64.9 9.7 59 8.5
2009-07-09 07:09:14 51°16.192 2°56.536 64 9.7 63 8.2
2009-07-09 07:09:19 51°16.198 2°56.556 64.8 9.9 59 8.4
2009-07-09 07:09:24 51°16.205 2°56.574 64 9.9 60 8.5
2009-07-09 07:09:30 51°16.212 2°56.597 64.4 9.6 59 7.9
2009-07-09 07:09:34 51°16.217 2°56.613 64.7 9.8 64 8.6
2009-07-09 07:09:39 51°16.224 2°56.631 64.5 9.9 60 8.2
2009-07-09 07:09:44 51°16.23 2°56.651 64.5 9.9 64 8.4
2009-07-09 07:09:50 51°16.238 2°56.674 64.7 9.8 61 8.6
2009-07-09 07:09:54 51°16.242 2°56.689 65 9.9 63 8.5
2009-07-09 07:09:59 51°16.249 2°56.708 64.6 9.8 60 8.5
2009-07-09 07:10:04 51°16.255 2°56.728 64.3 9.8 63 8.2
2009-07-09 07:10:10 51°16.264 2°56.75 64.4 9.8 59 8.1
2009-07-09 07:10:14 51°16.268 2°56.766 64.7 9.8 63 8.3
2009-07-09 07:10:19 51°16.275 2°56.784 64.6 9.8 61 8.4
2009-07-09 07:10:24 51°16.281 2°56.804 65.4 9.7 64 8.3
2009-07-09 07:10:30 51°16.288 2°56.827 66.1 9.8 62 8.3
2009-07-09 07:10:34 51°16.293 2°56.843 65.5 9.9 63 8.4
2009-07-09 07:10:39 51°16.3 2°56.861 64.6 9.7 64 8.4
2009-07-09 07:10:44 51°16.305 2°56.881 66.1 9.8 65 8.5
2009-07-09 07:10:50 51°16.313 2°56.904 65 9.8 64 8.6
2009-07-09 07:10:54 51°16.318 2°56.919 65.7 9.8 62 8.3
2009-07-09 07:11:00 51°16.326 2°56.942 64.8 9.9 59 8.2
2009-07-09 07:11:04 51°16.332 2°56.957 63.4 9.8 62 8.7
2009-07-09 07:11:10 51°16.34 2°56.979 63.1 9.8 58 8.2
2009-07-09 07:11:14 51°16.345 2°56.995 62.5 9.9 58 8.5
2009-07-09 07:11:19 51°16.353 2°57.013 61.5 9.9 59 8.5
2009-07-09 07:11:25 51°16.361 2°57.035 62.1 9.8 59 8.5
2009-07-09 07:11:30 51°16.368 2°57.054 62.3 9.8 59 8.1
2009-07-09 07:11:34 51°16.373 2°57.069 62.5 9.9 59 8.5
2009-07-09 07:11:39 51°16.381 2°57.087 61.8 9.9 58 8.9
2009-07-09 07:11:44 51°16.389 2°57.106 61.6 9.8 58 8.4
2009-07-09 07:11:50 51°16.397 2°57.129 62.5 9.9 59 8.9
2009-07-09 07:11:54 51°16.404 2°57.142 60.5 9.7 57 8.7
2009-07-09 07:11:59 51°16.41 2°57.162 61.1 9.8 60 8.9
2009-07-09 07:12:05 51°16.42 2°57.183 59.8 10 54 8.5
2009-07-09 07:12:10 51°16.427 2°57.201 59.7 9.8 55 8.6
2009-07-09 07:12:14 51°16.433 2°57.216 60.4 9.9 59 9
2009-07-09 07:12:18 51°16.439 2°57.23 60.1 9.8 55 8.7
2009-07-09 07:12:24 51°16.448 2°57.252 58.9 9.8 55 8.5
2009-07-09 07:12:30 51°16.457 2°57.273 59.6 9.8 58 8.6
2009-07-09 07:12:35 51°16.465 2°57.291 60 9.9 54 8.6
2009-07-09 07:12:39 51°16.471 2°57.305 58.8 9.9 54 8.4
2009-07-09 07:12:44 51°16.479 2°57.324 59.6 9.8 58 8.5
2009-07-09 07:12:50 51°16.488 2°57.345 59.5 9.8 57 8.6
2009-07-09 07:12:54 51°16.494 2°57.36 59 9.8 53 8.6
2009-07-09 07:12:59 51°16.502 2°57.377 58.9 9.8 56 8.3
2009-07-09 07:13:04 51°16.509 2°57.396 59.6 9.9 57 8.7
2009-07-09 07:13:10 51°16.519 2°57.417 58.7 9.8 53 8.7
2009-07-09 07:13:14 51°16.525 2°57.431 58.9 9.8 54 8.4
2009-07-09 07:13:20 51°16.534 2°57.452 59.6 9.8 57 8.8
2009-07-09 07:13:24 51°16.541 2°57.466 59.2 9.8 54 8.5
2009-07-09 07:13:30 51°16.55 2°57.488 59.1 9.8 56 8.7
2009-07-09 07:13:34 51°16.557 2°57.502 59 9.8 54 8.7
2009-07-09 07:13:39 51°16.564 2°57.521 60.1 9.9 59 8.6
2009-07-09 07:13:45 51°16.573 2°57.542 59.7 9.8 54 8.6
2009-07-09 07:13:50 51°16.581 2°57.56 59.9 9.8 56 8.6
2009-07-09 07:13:54 51°16.587 2°57.574 59.2 9.7 57 8.8
2009-07-09 07:13:59 51°16.594 2°57.591 59.5 9.8 55 8.6
2009-07-09 07:14:04 51°16.602 2°57.61 59.1 9.9 56 8.6
2009-07-09 07:14:10 51°16.611 2°57.63 58.5 9.7 55 8.2
2009-07-09 07:14:14 51°16.617 2°57.645 59.5 9.7 56 8.5
2009-07-09 07:14:19 51°16.625 2°57.663 59.3 9.8 55 8.8
2009-07-09 07:14:25 51°16.634 2°57.684 58.9 9.8 55 8.6
2009-07-09 07:14:30 51°16.641 2°57.702 58.8 9.7 60 8.8
2009-07-09 07:14:34 51°16.648 2°57.716 59.6 9.7 52 8.4
2009-07-09 07:14:38 51°16.654 2°57.73 59 9.8 57 8.7
2009-07-09 07:14:44 51°16.663 2°57.752 59.3 9.8 56 8.9
2009-07-09 07:14:50 51°16.672 2°57.773 59.3 9.6 59 8.7
2009-07-09 07:14:54 51°16.678 2°57.788 59.9 9.8 55 8.7
2009-07-09 07:15:00 51°16.687 2°57.809 58.9 9.7 56 8.8
2009-07-09 07:15:04 51°16.693 2°57.823 59.3 9.6 57 8.5
2009-07-09 07:15:09 51°16.7 2°57.841 60.1 9.7 57 8.8
2009-07-09 07:15:15 51°16.71 2°57.862 59.4 9.7 56 8.5
2009-07-09 07:15:19 51°16.715 2°57.877 59.6 9.6 58 8.4
2009-07-09 07:15:25 51°16.723 2°57.899 62 9.6 60 8.6
2009-07-09 07:15:30 51°16.73 2°57.917 62.2 9.7 58 8.8
2009-07-09 07:15:34 51°16.736 2°57.932 62.5 9.5 60 8.4
2009-07-09 07:15:39 51°16.741 2°57.951 64.8 9.7 65 8.7
2009-07-09 07:15:45 51°16.75 2°57.973 63.2 9.8 57 8.5
2009-07-09 07:15:50 51°16.756 2°57.992 63.7 9.7 62 8.6
2009-07-09 07:15:54 51°16.761 2°58.007 64.1 9.6 63 8.6
2009-07-09 07:15:59 51°16.767 2°58.026 64.5 9.7 62 8.9
2009-07-09 07:16:05 51°16.776 2°58.048 63.7 9.7 59 8.4
2009-07-09 07:16:10 51°16.781 2°58.068 65.2 9.8 62 8.6
2009-07-09 07:16:14 51°16.787 2°58.082 64.1 9.7 62 8.7
2009-07-09 07:16:19 51°16.793 2°58.101 64 9.6 60 8.2
2009-07-09 07:16:24 51°16.799 2°58.121 65 9.7 65 8.6
2009-07-09 07:16:30 51°16.807 2°58.142 64.3 9.6 61 8.5
2009-07-09 07:16:34 51°16.812 2°58.158 65.1 9.6 64 8.4
2009-07-09 07:16:39 51°16.818 2°58.176 65 9.6 61 8.6
2009-07-09 07:16:44 51°16.824 2°58.195 64.2 9.7 63 8.7
2009-07-09 07:16:50 51°16.833 2°58.216 63.2 9.6 59 8.3
2009-07-09 07:16:54 51°16.836 2°58.233 65.5 9.8 70 9.1
2009-07-09 07:16:58 51°16.842 2°58.247 65.4 9.7 57 8.5
2009-07-09 07:17:04 51°16.849 2°58.271 65.7 9.7 69 8.5
2009-07-09 07:17:10 51°16.857 2°58.293 65.6 9.7 59 8.5
2009-07-09 07:17:15 51°16.862 2°58.312 65.4 9.6 66 8.5
2009-07-09 07:17:19 51°16.867 2°58.327 66.8 9.7 61 8.4
2009-07-09 07:17:24 51°16.873 2°58.347 65.9 9.7 64 8.4
2009-07-09 07:17:30 51°16.881 2°58.37 65.5 9.8 62 8.6
2009-07-09 07:17:35 51°16.886 2°58.389 65.6 9.8 64 8.8
2009-07-09 07:17:39 51°16.891 2°58.405 65.6 9.7 64 8.6
2009-07-09 07:17:44 51°16.897 2°58.424 66.3 9.7 62 8.5
2009-07-09 07:17:50 51°16.905 2°58.447 65.8 9.9 62 8.4
2009-07-09 07:17:54 51°16.91 2°58.462 65.4 9.9 63 8.7
2009-07-09 07:18:00 51°16.917 2°58.485 65.3 9.8 63 8.7
2009-07-09 07:18:04 51°16.923 2°58.501 65.9 9.8 62 8.5
2009-07-09 07:18:10 51°16.93 2°58.523 65.8 9.7 61 8.3
2009-07-09 07:18:14 51°16.935 2°58.539 65.4 9.9 65 8.7
2009-07-09 07:18:20 51°16.944 2°58.562 64.3 10 57 8.2
2009-07-09 07:18:25 51°16.949 2°58.581 63.9 9.8 66 8.6
2009-07-09 07:18:30 51°16.956 2°58.6 64.8 9.7 60 8.6
2009-07-09 07:18:34 51°16.96 2°58.615 65 9.6 64 8.3
2009-07-09 07:18:39 51°16.967 2°58.635 66 9.8 62 8.5
2009-07-09 07:18:45 51°16.975 2°58.657 64.9 9.9 60 8.5
2009-07-09 07:18:50 51°16.981 2°58.677 64.8 9.8 65 8.6
2009-07-09 07:18:54 51°16.986 2°58.692 65 9.7 59 8.2
2009-07-09 07:18:59 51°16.992 2°58.712 65.7 9.8 66 8.6
2009-07-09 07:19:04 51°16.999 2°58.73 65.7 9.9 59 8.6
2009-07-09 07:19:10 51°17.006 2°58.754 65.1 9.8 67 8.4
2009-07-09 07:19:14 51°17.011 2°58.769 66.1 9.8 59 8.2
2009-07-09 07:19:19 51°17.017 2°58.788 64.9 9.9 68 8.8
2009-07-09 07:19:24 51°17.024 2°58.807 65 9.7 59 8.6
2009-07-09 07:19:30 51°17.031 2°58.83 64.1 9.7 67 8.5
2009-07-09 07:19:34 51°17.036 2°58.845 65.5 9.9 58 8.5
2009-07-09 07:19:40 51°17.044 2°58.868 63 9.7 62 8.4
2009-07-09 07:19:44 51°17.049 2°58.883 64.4 9.5 60 8.2
2009-07-09 07:19:50 51°17.057 2°58.905 64.6 9.7 62 8.5
2009-07-09 07:19:55 51°17.064 2°58.923 63.4 9.8 58 8.3
2009-07-09 07:19:59 51°17.069 2°58.939 64 9.7 65 8.5
2009-07-09 07:20:05 51°17.077 2°58.961 64.3 9.7 57 8.2
2009-07-09 07:20:10 51°17.083 2°58.98 64 9.7 62 8.5
2009-07-09 07:20:14 51°17.089 2°58.995 63.2 9.7 59 8.4
2009-07-09 07:20:19 51°17.095 2°59.014 63.5 9.7 61 8.2
2009-07-09 07:20:25 51°17.103 2°59.036 63.7 9.7 60 8.3
2009-07-09 07:20:30 51°17.11 2°59.055 63.7 9.8 60 8.5
2009-07-09 07:20:34 51°17.116 2°59.07 62.8 9.7 59 8.5
2009-07-09 07:20:40 51°17.123 2°59.092 63.2 9.7 63 8.7
2009-07-09 07:20:45 51°17.13 2°59.111 64 9.8 58 8.4
2009-07-09 07:20:50 51°17.136 2°59.13 63.7 9.8 63 8.6
2009-07-09 07:20:54 51°17.142 2°59.145 63.6 9.8 59 8.7
2009-07-09 07:20:59 51°17.149 2°59.163 63.1 9.7 62 8.3
2009-07-09 07:21:05 51°17.156 2°59.186 64.5 9.7 61 8.6
2009-07-09 07:21:10 51°17.163 2°59.205 63.7 9.7 59 8.2
2009-07-09 07:21:15 51°17.169 2°59.224 64.1 9.8 64 8.9
2009-07-09 07:21:19 51°17.175 2°59.238 63.9 9.8 57 8.3
2009-07-09 07:21:24 51°17.181 2°59.258 63.2 9.6 64 8.6
2009-07-09 07:21:30 51°17.189 2°59.28 64.3 9.7 64 8.4
2009-07-09 07:21:34 51°17.194 2°59.295 64.5 9.7 60 8.2
2009-07-09 07:21:39 51°17.201 2°59.314 64.3 9.7 63 8.4
2009-07-09 07:21:44 51°17.206 2°59.334 65.4 9.8 64 8.8
2009-07-09 07:21:50 51°17.215 2°59.356 64.7 9.6 60 8.2
2009-07-09 07:21:54 51°17.218 2°59.372 66.1 9.7 68 8.7
2009-07-09 07:22:00 51°17.227 2°59.393 64.9 9.8 56 8.3
2009-07-09 07:22:04 51°17.231 2°59.41 64.3 9.7 66 8.4
2009-07-09 07:22:10 51°17.239 2°59.432 65.4 9.7 60 8.4
2009-07-09 07:22:15 51°17.244 2°59.452 65.8 9.7 66 8.4
2009-07-09 07:22:19 51°17.25 2°59.467 65.4 9.8 62 8.4
2009-07-09 07:22:25 51°17.257 2°59.49 65.2 9.8 63 8.4
2009-07-09 07:22:30 51°17.264 2°59.51 65.1 9.8 63 8.6
2009-07-09 07:22:34 51°17.268 2°59.525 65.8 9.8 65 8.5
2009-07-09 07:22:39 51°17.274 2°59.544 65.9 9.8 62 8.7
2009-07-09 07:22:44 51°17.28 2°59.564 65.5 9.8 63 8.4
2009-07-09 07:22:50 51°17.288 2°59.587 65.1 9.7 64 8.7
2009-07-09 07:22:54 51°17.293 2°59.602 65.1 9.8 62 8.2
2009-07-09 07:22:59 51°17.299 2°59.622 65.2 9.9 62 8.3
2009-07-09 07:23:05 51°17.307 2°59.644 64.3 9.8 62 8.2
2009-07-09 07:23:10 51°17.313 2°59.664 64.7 9.8 62 8.4
2009-07-09 07:23:14 51°17.318 2°59.679 64.5 9.7 61 8.2
2009-07-09 07:23:18 51°17.323 2°59.694 64.7 9.7 63 8.3
2009-07-09 07:23:25 51°17.332 2°59.721 64.1 9.8 60 8.5
2009-07-09 07:23:30 51°17.338 2°59.74 63.7 9.7 64 8.5
2009-07-09 07:23:35 51°17.345 2°59.759 64.8 9.6 62 8.2
2009-07-09 07:23:39 51°17.349 2°59.774 64.6 9.7 61 8.2
2009-07-09 07:23:45 51°17.357 2°59.797 63.7 9.8 60 8.2
2009-07-09 07:23:50 51°17.364 2°59.816 64.4 9.7 62 8.2
2009-07-09 07:23:54 51°17.369 2°59.831 64 9.8 61 7.9
2009-07-09 07:23:59 51°17.374 2°59.851 64.8 9.8 63 8.5
2009-07-09 07:24:05 51°17.382 2°59.873 64 9.6 64 8.3
2009-07-09 07:24:10 51°17.388 2°59.892 64.9 9.8 61 8
2009-07-09 07:24:15 51°17.395 2°59.91 63.4 9.7 58 8.2
2009-07-09 07:24:19 51°17.4 2°59.926 64.1 9.7 65 8.4
2009-07-09 07:24:25 51°17.408 2°59.949 64.4 9.8 59 8.6
2009-07-09 07:24:30 51°17.414 2°59.968 63.2 9.7 65 8.5
2009-07-09 07:24:34 51°17.419 2°59.983 64.1 9.7 60 8
2009-07-09 07:24:39 51°17.425 3°0.002 64.1 9.7 64 8.2
2009-07-09 07:24:44 51°17.431 3°0.021 65 9.8 64 8.4
2009-07-09 07:24:50 51°17.439 3°0.045 64.7 9.8 62 8.3
2009-07-09 07:24:54 51°17.443 3°0.06 65.3 9.7 66 8.4
2009-07-09 07:25:00 51°17.451 3°0.083 65.4 9.9 59 8
2009-07-09 07:25:04 51°17.455 3°0.099 64.8 9.8 67 8.3
2009-07-09 07:25:10 51°17.463 3°0.122 65.4 9.8 60 8.3
2009-07-09 07:25:14 51°17.468 3°0.137 65.2 9.7 67 8.5
2009-07-09 07:25:20 51°17.475 3°0.16 65.3 9.6 59 7.9
2009-07-09 07:25:25 51°17.481 3°0.179 64.2 9.7 64 8.2
2009-07-09 07:25:30 51°17.488 3°0.198 64.7 9.7 61 8.3
2009-07-09 07:25:34 51°17.493 3°0.213 64.2 9.8 64 8.3
2009-07-09 07:25:39 51°17.499 3°0.232 64.2 9.7 63 8.3
2009-07-09 07:25:44 51°17.505 3°0.252 64.7 9.7 63 8.2
2009-07-09 07:25:50 51°17.512 3°0.275 65.2 9.7 64 8.4
2009-07-09 07:25:54 51°17.517 3°0.29 65 9.7 63 8.1
2009-07-09 07:25:58 51°17.522 3°0.306 64.6 9.7 63 8.4
2009-07-09 07:26:04 51°17.53 3°0.328 64.1 9.6 64 8.1
2009-07-09 07:26:10 51°17.537 3°0.351 65.2 9.7 58 7.9
2009-07-09 07:26:15 51°17.543 3°0.37 63.8 9.6 62 8.2
2009-07-09 07:26:19 51°17.548 3°0.386 64.7 9.7 62 8
2009-07-09 07:26:24 51°17.555 3°0.403 63.8 9.6 57 7.9
2009-07-09 07:26:30 51°17.561 3°0.427 63.7 9.6 67 8.4
2009-07-09 07:26:34 51°17.568 3°0.441 64.3 9.6 58 8.1
2009-07-09 07:26:39 51°17.573 3°0.46 64.1 9.7 64 7.9
2009-07-09 07:26:44 51°17.579 3°0.479 64.5 9.7 62 8.3
2009-07-09 07:26:50 51°17.587 3°0.502 63.8 9.7 61 8
2009-07-09 07:26:54 51°17.592 3°0.518 64.4 9.6 63 8
2009-07-09 07:27:00 51°17.599 3°0.54 64 9.7 61 8.3
2009-07-09 07:27:04 51°17.605 3°0.555 63 9.8 61 8.3
2009-07-09 07:27:10 51°17.613 3°0.577 62.1 9.7 60 8
2009-07-09 07:27:14 51°17.617 3°0.593 63.2 9.8 64 8.5
2009-07-09 07:27:20 51°17.626 3°0.614 62.3 9.7 58 8
2009-07-09 07:27:25 51°17.631 3°0.634 62.7 9.6 64 8.3
2009-07-09 07:27:30 51°17.639 3°0.652 62.8 9.7 56 8.1
2009-07-09 07:27:34 51°17.644 3°0.667 61.8 9.6 63 8.3
2009-07-09 07:27:39 51°17.65 3°0.686 63.4 9.6 61 8.1
2009-07-09 07:27:45 51°17.658 3°0.708 63.2 9.7 61 8.2
2009-07-09 07:27:50 51°17.664 3°0.728 63.3 9.7 61 8.2
2009-07-09 07:27:54 51°17.669 3°0.743 63.3 9.8 62 8.3
2009-07-09 07:27:59 51°17.676 3°0.762 63.8 9.8 64 8.4
2009-07-09 07:28:04 51°17.682 3°0.781 63.6 9.7 61 8.2
2009-07-09 07:28:10 51°17.69 3°0.804 63.4 9.8 63 8.4
2009-07-09 07:28:14 51°17.695 3°0.819 64 9.9 62 8.1
2009-07-09 07:28:19 51°17.7 3°0.839 64.5 10 65 8.6
2009-07-09 07:28:24 51°17.708 3°0.858 63.9 9.8 60 8.5
2009-07-09 07:28:30 51°17.714 3°0.881 64.7 9.8 65 8.2
2009-07-09 07:28:34 51°17.719 3°0.897 65.1 9.9 62 8.4
2009-07-09 07:28:40 51°17.727 3°0.92 64 9.8 63 7.9
2009-07-09 07:28:44 51°17.731 3°0.936 65.3 9.8 64 7.9
2009-07-09 07:28:50 51°17.739 3°0.958 64.4 9.7 61 8.2
2009-07-09 07:28:55 51°17.744 3°0.978 64.7 9.8 66 8.3
2009-07-09 07:28:59 51°17.75 3°0.994 64.4 9.8 60 8.3
2009-07-09 07:29:05 51°17.757 3°1.017 64 9.7 64 8.4
2009-07-09 07:29:10 51°17.763 3°1.036 65.4 9.7 62 8.1
2009-07-09 07:29:14 51°17.768 3°1.052 65 9.7 66 8.2
2009-07-09 07:29:19 51°17.774 3°1.071 64.4 9.7 61 8.3
2009-07-09 07:29:24 51°17.779 3°1.09 64.7 9.8 68 8.4
2009-07-09 07:29:30 51°17.787 3°1.113 65.2 9.8 59 8.4
2009-07-09 07:29:34 51°17.791 3°1.129 64.4 9.7 70 8.4
2009-07-09 07:29:40 51°17.799 3°1.152 66.4 9.7 60 8.1
2009-07-09 07:29:45 51°17.804 3°1.171 64.5 9.6 67 8.4
2009-07-09 07:29:50 51°17.81 3°1.191 65.3 9.7 64 8.3
2009-07-09 07:29:54 51°17.815 3°1.206 65.4 9.7 62 8.3
2009-07-09 07:29:58 51°17.82 3°1.221 64.5 9.6 66 8.5
2009-07-09 07:30:05 51°17.827 3°1.248 65.5 9.7 65 8.4
2009-07-09 07:30:10 51°17.833 3°1.268 65.1 9.7 64 8.4
2009-07-09 07:30:14 51°17.838 3°1.283 65.3 9.6 63 7.8
2009-07-09 07:30:19 51°17.843 3°1.303 66.5 9.8 67 8.5
2009-07-09 07:30:25 51°17.851 3°1.325 64.6 9.7 61 8.5
2009-07-09 07:30:30 51°17.856 3°1.344 64 9.4 66 8.1
2009-07-09 07:30:34 51°17.861 3°1.359 66.1 9.6 65 8.1
2009-07-09 07:30:39 51°17.867 3°1.378 64.9 9.6 62 7.9
2009-07-09 07:30:44 51°17.872 3°1.397 64.8 9.4 66 7.7
2009-07-09 07:30:50 51°17.879 3°1.419 65.5 9.2 64 7.9
2009-07-09 07:30:54 51°17.884 3°1.434 64.6 9.2 64 5.5
2009-07-09 07:31:00 51°17.891 3°1.456 65.2 9.5 62 7.7
2009-07-09 07:31:04 51°17.896 3°1.471 63.5 9.4 65 7.8
2009-07-09 07:31:10 51°17.903 3°1.493 64 9.3 62 7.5
2009-07-09 07:31:15 51°17.909 3°1.512 63.5 9.4 63 8.2
2009-07-09 07:31:20 51°17.915 3°1.53 63 9.4 60 8
2009-07-09 07:31:25 51°17.921 3°1.548 62.5 9.4 62 8.4
2009-07-09 07:31:30 51°17.927 3°1.567 63.2 9.6 65 8.7
2009-07-09 07:31:35 51°17.934 3°1.585 63.5 9.6 59 8.4
2009-07-09 07:31:39 51°17.938 3°1.601 63.8 9.6 67 8.9
2009-07-09 07:31:45 51°17.945 3°1.623 64.8 9.5 60 8.3
2009-07-09 07:31:50 51°17.95 3°1.643 64.4 9.5 66 8.5
2009-07-09 07:31:54 51°17.956 3°1.658 64.7 9.6 60 8
2009-07-09 07:32:00 51°17.962 3°1.68 63.8 9.5 63 8.3
2009-07-09 07:32:04 51°17.967 3°1.695 63.8 9.6 65 8.7
2009-07-09 07:32:10 51°17.975 3°1.717 63.4 9.5 60 8.5
2009-07-09 07:32:14 51°17.98 3°1.732 62.5 9.4 65 8.7
2009-07-09 07:32:19 51°17.985 3°1.751 63.7 9.6 63 8.7
2009-07-09 07:32:25 51°17.993 3°1.773 62.5 9.5 60 8.1
2009-07-09 07:32:30 51°17.998 3°1.792 63.1 9.5 63 8.4
2009-07-09 07:32:34 51°18.004 3°1.806 63.7 9.5 61 8.3
2009-07-09 07:32:39 51°18.01 3°1.825 63.1 9.5 63 8.1
2009-07-09 07:32:44 51°18.015 3°1.844 63.6 9.4 62 8.2
2009-07-09 07:32:50 51°18.023 3°1.866 63.2 9.3 64 8.2
2009-07-09 07:32:54 51°18.027 3°1.881 63.8 9.5 63 8
2009-07-09 07:32:59 51°18.034 3°1.9 63.3 9.5 61 8
2009-07-09 07:33:04 51°18.04 3°1.918 62.6 9.4 65 8.1
2009-07-09 07:33:10 51°18.047 3°1.941 63.9 9.5 62 8.1
2009-07-09 07:33:14 51°18.052 3°1.956 64 9.5 63 8
2009-07-09 07:33:20 51°18.058 3°1.978 64.8 9.4 65 8.4
2009-07-09 07:33:24 51°18.064 3°1.993 64.4 9.6 65 8.4
2009-07-09 07:33:30 51°18.07 3°2.016 64.4 9.5 62 8
2009-07-09 07:33:35 51°18.075 3°2.035 65 9.5 66 8
2009-07-09 07:33:39 51°18.08 3°2.05 65.4 9.5 63 8.2
2009-07-09 07:33:45 51°18.087 3°2.073 64.9 9.5 66 7.9
2009-07-09 07:33:50 51°18.093 3°2.092 66 9.5 64 7.9
2009-07-09 07:33:54 51°18.098 3°2.107 65 9.6 63 8
2009-07-09 07:34:00 51°18.104 3°2.13 64.6 9.5 65 8
2009-07-09 07:34:04 51°18.11 3°2.145 64.5 9.6 64 8.1
2009-07-09 07:34:10 51°18.117 3°2.167 64.7 9.6 61 7.7
2009-07-09 07:34:14 51°18.121 3°2.183 64.8 9.6 68 8.1
2009-07-09 07:34:20 51°18.128 3°2.206 65.5 9.6 62 7.9
2009-07-09 07:34:25 51°18.134 3°2.225 64.7 9.6 63 7.5
2009-07-09 07:34:30 51°18.139 3°2.244 64.9 9.6 66 8
2009-07-09 07:34:34 51°18.144 3°2.259 65.1 9.6 63 7.8
2009-07-09 07:34:39 51°18.15 3°2.279 65 9.7 67 7.9
2009-07-09 07:34:45 51°18.157 3°2.302 66.1 9.6 62 7.8
2009-07-09 07:34:50 51°18.162 3°2.321 64.7 9.5 67 7.7
2009-07-09 07:34:54 51°18.167 3°2.336 65.6 9.6 59 7.8
2009-07-09 07:34:59 51°18.173 3°2.355 64.1 9.5 67 8
2009-07-09 07:35:04 51°18.178 3°2.374 65.7 9.6 62 7.8
2009-07-09 07:35:10 51°18.185 3°2.397 65.1 9.6 67 7.9
2009-07-09 07:35:14 51°18.19 3°2.412 64.9 9.5 61 7.6
2009-07-09 07:35:19 51°18.196 3°2.431 64.4 9.5 64 7.6
2009-07-09 07:35:24 51°18.202 3°2.449 64 9.5 62 7.4
2009-07-09 07:35:30 51°18.21 3°2.472 64 9.6 62 7.5
2009-07-09 07:35:34 51°18.214 3°2.488 64.4 9.6 65 7.6
2009-07-09 07:35:40 51°18.221 3°2.51 64.7 9.5 63 7.8
2009-07-09 07:35:44 51°18.225 3°2.526 65.5 9.6 69 8
2009-07-09 07:35:50 51°18.233 3°2.548 65.2 9.6 59 5.6
2009-07-09 07:35:55 51°18.238 3°2.567 64.7 9.5 66 7.5
2009-07-09 07:36:00 51°18.244 3°2.586 64.5 9.5 62 7.7
2009-07-09 07:36:05 51°18.25 3°2.604 64.2 9.4 64 7.8
2009-07-09 07:36:10 51°18.256 3°2.624 64.2 9.6 64 8
2009-07-09 07:36:14 51°18.261 3°2.638 63.3 9.6 60 7.5
2009-07-09 07:36:19 51°18.267 3°2.657 62.6 9.5 63 7.6
2009-07-09 07:36:25 51°18.274 3°2.68 63.9 9.6 63 8
2009-07-09 07:36:30 51°18.281 3°2.697 62.5 9.5 58 7.6
2009-07-09 07:36:34 51°18.285 3°2.713 64 9.6 68 7.7
2009-07-09 07:36:40 51°18.293 3°2.736 64.5 9.8 58 7.6
2009-07-09 07:36:44 51°18.297 3°2.752 64 9.7 68 7.6
2009-07-09 07:36:50 51°18.305 3°2.774 64.9 9.7 62 7.9
2009-07-09 07:36:54 51°18.31 3°2.79 64.1 9.7 65 7.8
2009-07-09 07:36:59 51°18.315 3°2.809 64.5 9.7 61 7.8
2009-07-09 07:37:05 51°18.323 3°2.832 63.9 9.7 64 7.9
2009-07-09 07:37:10 51°18.329 3°2.85 63.4 9.6 61 7.7
2009-07-09 07:37:14 51°18.334 3°2.865 63.6 8.9 63 7.9
2009-07-09 07:37:19 51°18.34 3°2.88 62.5 8.2 60 7.9
2009-07-09 07:37:25 51°18.345 3°2.898 61.8 7.5 62 8.1
2009-07-09 07:37:30 51°18.351 3°2.91 60.3 6.6 56 7.9
2009-07-09 07:37:35 51°18.356 3°2.921 58.5 6.1 56 7.9
2009-07-09 07:37:39 51°18.36 3°2.929 56.9 5.5 51 7.9
2009-07-09 07:37:45 51°18.365 3°2.939 53.8 4.9 49 8
2009-07-09 07:37:50 51°18.37 3°2.945 50.4 4.4 40 7.9
2009-07-09 07:37:54 51°18.373 3°2.95 47 4 41 8
2009-07-09 07:38:00 51°18.378 3°2.955 43.6 3.7 31 8
2009-07-09 07:38:05 51°18.382 3°2.959 40.6 3.4 31 8
2009-07-09 07:38:10 51°18.386 3°2.961 37.1 3.1 22 8
2009-07-09 07:38:14 51°18.389 3°2.963 34.6 2.8 21 8.1
2009-07-09 07:38:19 51°18.393 3°2.965 32 2.6 16 8.2
2009-07-09 07:38:25 51°18.397 3°2.966 29.6 2.5 11 8
2009-07-09 07:38:30 51°18.4 3°2.967 28.1 2.3 10 8
2009-07-09 07:38:34 51°18.402 3°2.967 27.9 2.3 5 8
2009-07-09 07:38:40 51°18.406 3°2.969 28.1 2.1 12 8
2009-07-09 07:38:45 51°18.409 3°2.969 29.5 2.1 11 8.3
2009-07-09 07:38:50 51°18.411 3°2.97 30.1 1.9 10 8
2009-07-09 07:38:54 51°18.413 3°2.97 32.2 1.8 7 7.7
2009-07-09 07:38:59 51°18.415 3°2.972 35 1.6 24 8
2009-07-09 07:39:05 51°18.418 3°2.972 37.2 1.6 11 8
2009-07-09 07:39:10 51°18.42 3°2.974 38.8 1.4 15 8
2009-07-09 07:39:14 51°18.421 3°2.974 41.5 1.4 22 8
2009-07-09 07:39:19 51°18.423 3°2.976 43.9 1.4 31 8.2
2009-07-09 07:39:25 51°18.425 3°2.978 46.7 1.5 33 8
2009-07-09 07:39:30 51°18.426 3°2.981 50.9 1.4 46 8.1
2009-07-09 07:39:35 51°18.427 3°2.983 55.2 1.4 48 7.9
2009-07-09 07:39:39 51°18.428 3°2.985 59.4 1.4 71 7.9
2009-07-09 07:39:44 51°18.429 3°2.988 64.2 1.4 65 8
2009-07-09 07:39:50 51°18.429 3°2.992 68.4 1.3 86 8
2009-07-09 07:39:55 51°18.429 3°2.994 72.7 1.2 81 7.8
2009-07-09 07:39:59 51°18.428 3°2.997 76.8 1.5 110 8
2009-07-09 07:40:04 51°18.428 3°3 80.1 1.2 95 7.9
2009-07-09 07:40:10 51°18.427 3°3.003 83.7 1.5 126 8.1
2009-07-09 07:40:14 51°18.427 3°3.005 87 1.3 113 8.1
2009-07-09 07:40:20 51°18.425 3°3.008 90.5 1.3 132 8
2009-07-09 07:40:24 51°18.424 3°3.01 93.4 1.4 134 8.1
2009-07-09 07:40:30 51°18.423 3°3.012 95.9 1.1 128 7.7
2009-07-09 07:40:34 51°18.421 3°3.013 98.4 1.4 147 8.1
2009-07-09 07:40:40 51°18.42 3°3.015 99.7 1.2 145 8.2
2009-07-09 07:40:45 51°18.418 3°3.016 101.7 1.3 156 8.2
2009-07-09 07:40:50 51°18.417 3°3.018 102.4 1 147 7.8
2009-07-09 07:40:54 51°18.415 3°3.018 103.9 1.3 160 8.3
2009-07-09 07:40:59 51°18.415 3°3.019 102.7 1.1 168 8.1
2009-07-09 07:41:05 51°18.413 3°3.02 105.4 1 155 8
2009-07-09 07:41:10 51°18.411 3°3.021 104 1.2 171 7.9
2009-07-09 07:41:14 51°18.41 3°3.021 105 0.9 163 8.1
2009-07-09 07:41:19 51°18.409 3°3.021 104.6 1.1 176 8.1
2009-07-09 07:41:24 51°18.407 3°3.021 104.7 0.8 175 8
2009-07-09 07:41:30 51°18.405 3°3.021 104.7 1 172 8.2
2009-07-09 07:41:34 51°18.404 3°3.021 104.1 1 181 8.2
2009-07-09 07:41:39 51°18.403 3°3.022 103.7 0.9 181 8.1
2009-07-09 07:41:45 51°18.401 3°3.021 103.7 0.9 182 8
2009-07-09 07:41:50 51°18.4 3°3.021 103 0.9 187 8.1
2009-07-09 07:41:54 51°18.399 3°3.021 102.6 0.8 187 8
2009-07-09 07:42:00 51°18.398 3°3.021 102.2 0.8 190 7.9
2009-07-09 07:42:04 51°18.397 3°3.021 101.7 0.9 191 8.2
2009-07-09 07:42:10 51°18.396 3°3.02 100.7 0.9 195 7.9
2009-07-09 07:42:14 51°18.395 3°3.02 101.1 0.8 188 8.1
2009-07-09 07:42:19 51°18.395 3°3.02 100.2 0.7 198 7.8
2009-07-09 07:42:25 51°18.393 3°3.019 100.2 0.8 193 8
2009-07-09 07:42:30 51°18.392 3°3.018 99.6 1 199 7.8
2009-07-09 07:42:35 51°18.391 3°3.018 99.7 0.7 202 8.2
2009-07-09 07:42:39 51°18.39 3°3.017 98.5 0.8 205 8
2009-07-09 07:42:45 51°18.389 3°3.016 99.1 0.8 202 7.9
2009-07-09 07:42:50 51°18.388 3°3.015 98.5 0.6 215 7.8
2009-07-09 07:42:55 51°18.387 3°3.014 98.7 1.1 203 8.2
2009-07-09 07:43:00 51°18.387 3°3.014 98.2 0.6 222 7.9
2009-07-09 07:43:05 51°18.385 3°3.013 98.6 1 205 8
2009-07-09 07:43:10 51°18.385 3°3.012 98.3 0.5 227 7.9
2009-07-09 07:43:14 51°18.383 3°3.011 98.3 1 204 8.1
2009-07-09 07:43:19 51°18.383 3°3.01 98.4 0.5 231 7.9
2009-07-09 07:43:25 51°18.381 3°3.009 98.1 1.1 206 8.2
2009-07-09 07:43:30 51°18.381 3°3.008 98.1 0.5 232 8
2009-07-09 07:43:34 51°18.38 3°3.007 98 1 210 7.9
2009-07-09 07:43:40 51°18.379 3°3.006 98.2 0.6 225 8.1
2009-07-09 07:43:45 51°18.378 3°3.005 97.3 1.1 214 7.9
2009-07-09 07:43:50 51°18.377 3°3.004 98.6 0.7 220 8.3
2009-07-09 07:43:54 51°18.376 3°3.003 97.8 1.1 215 8.1
2009-07-09 07:43:59 51°18.375 3°3.002 98.8 0.8 223 8
2009-07-09 07:44:05 51°18.374 3°3 98.8 0.9 217 8.1
2009-07-09 07:44:10 51°18.373 3°2.999 99 0.9 220 8.1
2009-07-09 07:44:14 51°18.372 3°2.998 99.5 0.8 219 8.1
2009-07-09 07:44:20 51°18.371 3°2.996 99.8 0.8 226 7.9
2009-07-09 07:44:24 51°18.37 3°2.995 99.5 0.9 224 8.2
2009-07-09 07:44:30 51°18.369 3°2.994 100 0.7 233 7.9
2009-07-09 07:44:35 51°18.368 3°2.992 99.8 0.9 223 8
2009-07-09 07:44:39 51°18.368 3°2.991 99.6 0.8 230 8.1
2009-07-09 07:44:45 51°18.367 3°2.989 100 0.9 221 8
2009-07-09 07:44:50 51°18.366 3°2.988 99.8 0.6 253 7.7
2009-07-09 07:44:55 51°18.365 3°2.986 99.8 1.3 214 8.3
2009-07-09 07:44:59 51°18.365 3°2.986 99.6 0.7 254 7.7
2009-07-09 07:45:05 51°18.363 3°2.984 100.2 1.2 217 8
2009-07-09 07:45:10 51°18.363 3°2.982 100 0.7 247 7.9
2009-07-09 07:45:14 51°18.362 3°2.981 99.6 1.2 220 8
2009-07-09 07:45:20 51°18.361 3°2.979 100.2 0.8 236 8.1
2009-07-09 07:45:25 51°18.36 3°2.977 100 1.1 224 7.9
2009-07-09 07:45:30 51°18.36 3°2.976 100.3 0.8 238 8.2
2009-07-09 07:45:34 51°18.359 3°2.975 100.2 1.1 225 8.1
2009-07-09 07:45:39 51°18.358 3°2.973 100.7 0.8 241 8
2009-07-09 07:45:45 51°18.357 3°2.971 100.8 1.1 224 8.2
2009-07-09 07:45:50 51°18.357 3°2.969 101 0.8 242 7.9
2009-07-09 07:45:54 51°18.356 3°2.968 101.4 1 226 8.2
2009-07-09 07:45:59 51°18.355 3°2.966 100.9 0.9 238 8
2009-07-09 07:46:05 51°18.354 3°2.964 101.8 1 229 8.1
2009-07-09 07:46:10 51°18.353 3°2.963 101.9 0.9 242 8
2009-07-09 07:46:14 51°18.352 3°2.961 102 1 234 8
2009-07-09 07:46:19 51°18.352 3°2.959 102 1.1 227 8.2
2009-07-09 07:46:25 51°18.351 3°2.957 102.5 1 234 7.9
2009-07-09 07:46:30 51°18.35 3°2.955 103.2 0.9 233 8
2009-07-09 07:46:34 51°18.349 3°2.954 103.2 1.1 227 8.2
2009-07-09 07:46:39 51°18.348 3°2.952 103.7 0.9 243 7.8
2009-07-09 07:46:44 51°18.347 3°2.95 104.6 1.1 226 8.3
2009-07-09 07:46:50 51°18.346 3°2.948 104.3 1.1 235 8
2009-07-09 07:46:54 51°18.346 3°2.947 105.6 1.1 228 8
2009-07-09 07:47:00 51°18.345 3°2.945 106 0.9 243 8
2009-07-09 07:47:04 51°18.344 3°2.943 105.7 1.3 227 8
2009-07-09 07:47:10 51°18.344 3°2.941 107 0.7 254 7.9
2009-07-09 07:47:15 51°18.342 3°2.939 107 1.3 230 7.9
2009-07-09 07:47:20 51°18.342 3°2.937 107.3 0.9 242 8.1
2009-07-09 07:47:25 51°18.341 3°2.935 107.5 1.1 234 7.9
2009-07-09 07:47:30 51°18.34 3°2.933 107.8 0.8 248 8.2
2009-07-09 07:47:34 51°18.339 3°2.932 107.6 1.2 233 8
2009-07-09 07:47:40 51°18.338 3°2.929 108.6 1 239 8.1
2009-07-09 07:47:45 51°18.338 3°2.928 108.4 1 238 8
2009-07-09 07:47:50 51°18.337 3°2.925 108.5 1 236 8.3
2009-07-09 07:47:54 51°18.336 3°2.924 108.5 1.1 239 8.1
2009-07-09 07:47:59 51°18.335 3°2.922 108.9 1.2 230 8.2
2009-07-09 07:48:04 51°18.335 3°2.92 108.8 1 241 8
2009-07-09 07:48:10 51°18.333 3°2.917 108.7 1.2 233 7.9
2009-07-09 07:48:14 51°18.333 3°2.916 109.3 1 240 8
2009-07-09 07:48:19 51°18.332 3°2.914 109.3 1.2 234 7.8
2009-07-09 07:48:25 51°18.331 3°2.911 110.3 0.9 244 8.1
2009-07-09 07:48:30 51°18.33 3°2.909 109.7 1.2 232 8.2
2009-07-09 07:48:34 51°18.33 3°2.908 110.6 1 242 8.1
2009-07-09 07:48:39 51°18.329 3°2.905 111.1 1.1 236 7.9
2009-07-09 07:48:44 51°18.328 3°2.903 111 1 240 8
2009-07-09 07:48:50 51°18.327 3°2.901 111.3 1.1 235 8.1
2009-07-09 07:48:54 51°18.326 3°2.899 111.6 1.1 240 8.1
2009-07-09 07:48:59 51°18.325 3°2.897 111.9 1.3 233 8.2
2009-07-09 07:49:04 51°18.324 3°2.895 112.9 0.9 251 7.8
2009-07-09 07:49:10 51°18.323 3°2.892 112.6 1.5 228 8.3
2009-07-09 07:49:14 51°18.323 3°2.891 113.2 0.9 251 7.9
2009-07-09 07:49:20 51°18.321 3°2.888 114.4 1.4 232 8.1
2009-07-09 07:49:24 51°18.321 3°2.887 114.5 1.1 242 8.1
2009-07-09 07:49:30 51°18.32 3°2.884 115.2 1.2 234 7.8
2009-07-09 07:49:35 51°18.32 3°2.882 116 0.9 244 7.9
2009-07-09 07:49:40 51°18.318 3°2.88 115.4 1.2 234 8.1
2009-07-09 07:49:45 51°18.318 3°2.878 115.7 1.2 240 8.1
2009-07-09 07:49:50 51°18.317 3°2.876 116.5 1.2 236 8
2009-07-09 07:49:55 51°18.316 3°2.874 116.8 1 242 8
2009-07-09 07:49:59 51°18.315 3°2.872 116.7 1.2 234 8.1
2009-07-09 07:50:05 51°18.314 3°2.87 117.3 1 239 8
2009-07-09 07:50:10 51°18.314 3°2.867 117.7 1.2 236 8
2009-07-09 07:50:14 51°18.313 3°2.865 118.4 1.1 239 8.2
2009-07-09 07:50:20 51°18.312 3°2.863 118.5 1.3 236 8.1
2009-07-09 07:50:25 51°18.311 3°2.861 119.9 1 240 8
2009-07-09 07:50:30 51°18.31 3°2.859 119.7 1.2 237 8
2009-07-09 07:50:34 51°18.309 3°2.857 119.9 1.2 235 8.3
2009-07-09 07:50:39 51°18.309 3°2.855 120.7 1.1 238 8
2009-07-09 07:50:45 51°18.307 3°2.853 121.4 1.1 237 8.2
2009-07-09 07:50:50 51°18.306 3°2.85 121.1 1.3 234 8.1
2009-07-09 07:50:54 51°18.306 3°2.849 122 1 240 8
2009-07-09 07:51:00 51°18.305 3°2.846 122.2 1.2 237 7.9
2009-07-09 07:51:05 51°18.304 3°2.844 122.6 1 239 7.9
2009-07-09 07:51:10 51°18.303 3°2.842 123 1.1 243 8.1
2009-07-09 07:51:15 51°18.302 3°2.84 123 1.1 238 8
2009-07-09 07:51:19 51°18.302 3°2.838 124.1 1 240 8.1
2009-07-09 07:51:25 51°18.301 3°2.835 123.6 1.2 242 8.1
2009-07-09 07:51:30 51°18.3 3°2.833 124.2 1.1 238 8.2
2009-07-09 07:51:34 51°18.3 3°2.832 124.2 1.2 240 7.9
2009-07-09 07:51:40 51°18.298 3°2.829 124.8 1 239 8.1
2009-07-09 07:51:45 51°18.297 3°2.827 124.1 1.3 236 8
2009-07-09 07:51:50 51°18.297 3°2.825 125.3 0.9 243 8.1
2009-07-09 07:51:54 51°18.296 3°2.824 124.5 1.4 233 8
2009-07-09 07:51:59 51°18.295 3°2.822 125.8 0.8 245 8
2009-07-09 07:52:05 51°18.294 3°2.819 125.1 1.4 230 7.9
2009-07-09 07:52:10 51°18.294 3°2.817 125.7 0.7 247 7.9
2009-07-09 07:52:14 51°18.293 3°2.815 125.3 1.5 231 8.2
2009-07-09 07:52:20 51°18.292 3°2.813 125.6 0.9 246 8
2009-07-09 07:52:24 51°18.291 3°2.811 125.9 1.2 235 8.1
2009-07-09 07:52:30 51°18.29 3°2.809 125.3 1.1 242 8
2009-07-09 07:52:34 51°18.29 3°2.807 125.7 1.1 237 7.9
2009-07-09 07:52:38 51°18.289 3°2.805 126 1 237 8.1
2009-07-09 07:52:45 51°18.288 3°2.803 125.6 1.1 237 8
2009-07-09 07:52:50 51°18.287 3°2.801 126.2 0.9 242 8
2009-07-09 07:52:54 51°18.286 3°2.799 126 1.1 239 8
2009-07-09 07:53:00 51°18.285 3°2.797 125.9 1.1 241 8.2
2009-07-09 07:53:05 51°18.285 3°2.795 126 1.1 240 8.1
2009-07-09 07:53:10 51°18.284 3°2.793 126 1 239 8.1
2009-07-09 07:53:15 51°18.283 3°2.791 125.8 1.1 237 8
2009-07-09 07:53:19 51°18.282 3°2.79 125.7 1 239 7.9
2009-07-09 07:53:24 51°18.281 3°2.787 125.9 1 238 8
2009-07-09 07:53:30 51°18.281 3°2.785 124.9 1.2 233 8.1
2009-07-09 07:53:35 51°18.28 3°2.783 125.6 1.1 239 8.2
2009-07-09 07:53:39 51°18.279 3°2.782 125 1.2 234 7.9
2009-07-09 07:53:44 51°18.278 3°2.779 126 0.8 235 7.9
2009-07-09 07:53:50 51°18.277 3°2.777 124.8 1.3 231 8
2009-07-09 07:53:54 51°18.276 3°2.775 125.3 1 237 8
2009-07-09 07:54:00 51°18.275 3°2.773 125.3 1.1 236 8.1
2009-07-09 07:54:04 51°18.274 3°2.771 125.1 1.1 235 8.1
2009-07-09 07:54:10 51°18.274 3°2.769 125.3 1.1 235 8.1
2009-07-09 07:54:15 51°18.273 3°2.767 125.2 1.1 235 8.1
2009-07-09 07:54:20 51°18.272 3°2.765 125.5 0.8 242 7.9
2009-07-09 07:54:25 51°18.271 3°2.763 125.4 1.2 235 8.1
2009-07-09 07:54:30 51°18.27 3°2.761 125.4 1 241 7.9
2009-07-09 07:54:34 51°18.269 3°2.759 126.1 1.1 234 8.1
2009-07-09 07:54:40 51°18.269 3°2.757 126 1.1 236 8
2009-07-09 07:54:45 51°18.268 3°2.755 126.5 1 236 8.1
2009-07-09 07:54:50 51°18.267 3°2.753 126.5 1.2 232 8
2009-07-09 07:54:54 51°18.267 3°2.752 127.2 0.8 242 7.8
2009-07-09 07:55:00 51°18.266 3°2.749 127.1 1.2 233 8.1
2009-07-09 07:55:04 51°18.265 3°2.748 127.1 0.9 241 7.9
2009-07-09 07:55:10 51°18.264 3°2.745 127 1.2 233 8.3
2009-07-09 07:55:14 51°18.264 3°2.744 127.2 0.9 242 7.9
2009-07-09 07:55:20 51°18.262 3°2.742 127.5 1.1 234 8.1
2009-07-09 07:55:25 51°18.262 3°2.739 126.9 1.1 240 8
2009-07-09 07:55:30 51°18.261 3°2.738 127.9 0.9 243 8.1
2009-07-09 07:55:34 51°18.26 3°2.736 127.3 1.3 235 8.1
2009-07-09 07:55:40 51°18.26 3°2.734 128.2 0.9 241 8.1
2009-07-09 07:55:44 51°18.259 3°2.732 128.5 1.1 238 8.1
2009-07-09 07:55:50 51°18.258 3°2.73 128.2 1.1 237 8.1
2009-07-09 07:55:55 51°18.257 3°2.728 128.9 1 237 7.8
2009-07-09 07:56:00 51°18.256 3°2.726 129.2 1.1 236 8.1
2009-07-09 07:56:05 51°18.256 3°2.724 128.9 1.1 241 7.9
2009-07-09 07:56:10 51°18.255 3°2.722 129.2 1.1 239 8.1
2009-07-09 07:56:15 51°18.254 3°2.72 129.1 1 239 8
2009-07-09 07:56:19 51°18.253 3°2.718 128.9 1.2 237 8.2
2009-07-09 07:56:25 51°18.252 3°2.716 128.7 1.1 238 8.1
2009-07-09 07:56:30 51°18.252 3°2.714 129.4 1 238 8
2009-07-09 07:56:35 51°18.251 3°2.712 129 1.2 237 8.1
2009-07-09 07:56:40 51°18.25 3°2.71 129.1 1.1 237 8.2
2009-07-09 07:56:45 51°18.249 3°2.708 129.1 1.1 238 7.8
2009-07-09 07:56:50 51°18.248 3°2.706 129.3 1 233 8.1
2009-07-09 07:56:54 51°18.248 3°2.704 128.6 1.1 241 7.9
2009-07-09 07:57:00 51°18.246 3°2.702 128.8 1 236 8.2
2009-07-09 07:57:05 51°18.246 3°2.7 128.3 1.2 237 8.1
2009-07-09 07:57:10 51°18.245 3°2.698 128.6 1 240 8.1
2009-07-09 07:57:14 51°18.244 3°2.696 128.5 1.2 236 8.1
2009-07-09 07:57:19 51°18.244 3°2.694 128.4 1 241 7.8
2009-07-09 07:57:24 51°18.243 3°2.692 128.9 1 236 8
2009-07-09 07:57:30 51°18.242 3°2.69 128 1 241 8
2009-07-09 07:57:34 51°18.241 3°2.688 128.2 1.1 238 8.1
2009-07-09 07:57:40 51°18.24 3°2.686 128.5 1 239 8.2
2009-07-09 07:57:45 51°18.24 3°2.684 127.9 1.2 238 8
2009-07-09 07:57:50 51°18.239 3°2.682 128.9 0.8 249 8
2009-07-09 07:57:54 51°18.238 3°2.68 127.4 1.4 236 8
2009-07-09 07:58:00 51°18.237 3°2.678 128.3 0.7 246 8.1
2009-07-09 07:58:04 51°18.237 3°2.676 127.2 1.4 237 8
2009-07-09 07:58:10 51°18.236 3°2.674 127.7 0.7 254 8.2
2009-07-09 07:58:15 51°18.235 3°2.672 126.6 1.5 235 8.1
2009-07-09 07:58:19 51°18.235 3°2.67 127.4 0.8 253 7.9
2009-07-09 07:58:25 51°18.233 3°2.667 126.7 1.4 234 8.2
2009-07-09 07:58:30 51°18.233 3°2.666 126.2 0.8 250 7.7
2009-07-09 07:58:34 51°18.232 3°2.664 126.4 1.3 235 8.4
2009-07-09 07:58:40 51°18.232 3°2.662 125.2 0.9 250 8
2009-07-09 07:58:44 51°18.231 3°2.66 126.1 1 237 8
2009-07-09 07:58:50 51°18.23 3°2.657 125 1 243 8.2
2009-07-09 07:58:55 51°18.229 3°2.655 124.7 1.2 237 8.2
2009-07-09 07:59:00 51°18.229 3°2.654 124.9 0.9 244 8
2009-07-09 07:59:05 51°18.228 3°2.651 124.7 1 240 7.9
2009-07-09 07:59:10 51°18.227 3°2.649 124.2 1 239 8.2
2009-07-09 07:59:14 51°18.227 3°2.648 123.9 1.1 239 8.1
2009-07-09 07:59:20 51°18.226 3°2.645 124.2 1 241 8.1
2009-07-09 07:59:25 51°18.225 3°2.643 123.9 1.1 238 8.1
2009-07-09 07:59:30 51°18.225 3°2.641 124 1 244 8
2009-07-09 07:59:34 51°18.224 3°2.64 124 1.1 237 8.1
2009-07-09 07:59:39 51°18.223 3°2.637 123.7 1 239 8
2009-07-09 07:59:45 51°18.222 3°2.635 123.6 1 238 7.9
2009-07-09 07:59:50 51°18.222 3°2.633 123.3 1 242 8
2009-07-09 07:59:55 51°18.221 3°2.631 122.7 1.2 238 8.1
2009-07-09 07:59:59 51°18.22 3°2.629 123.1 0.9 243 8
2009-07-09 08:00:05 51°18.219 3°2.627 122.7 1.1 241 8.1
2009-07-09 08:00:10 51°18.218 3°2.625 122.3 1.1 238 8.3
2009-07-09 08:00:14 51°18.218 3°2.623 122.6 1 241 7.9
2009-07-09 08:00:20 51°18.217 3°2.621 122.1 1.2 236 8
2009-07-09 08:00:24 51°18.216 3°2.619 122 1 240 8.1
2009-07-09 08:00:30 51°18.215 3°2.616 121.7 1 241 8.1
2009-07-09 08:00:34 51°18.215 3°2.615 121.4 1.1 238 8.2
2009-07-09 08:00:40 51°18.214 3°2.612 121.6 1 241 7.9
2009-07-09 08:00:45 51°18.213 3°2.61 121.3 1.2 236 8.3
2009-07-09 08:00:50 51°18.212 3°2.608 121.1 1 238 8.1
2009-07-09 08:00:55 51°18.211 3°2.606 121.3 1.1 238 7.9
2009-07-09 08:01:00 51°18.21 3°2.604 121.3 1.1 236 8.2
2009-07-09 08:01:05 51°18.21 3°2.602 121.1 1.2 236 8
2009-07-09 08:01:10 51°18.209 3°2.6 121.5 1 237 8
2009-07-09 08:01:14 51°18.208 3°2.598 121 1.2 239 8.1
2009-07-09 08:01:20 51°18.207 3°2.596 121 1.2 234 8.2
2009-07-09 08:01:24 51°18.207 3°2.594 121.3 0.9 243 7.8
2009-07-09 08:01:30 51°18.206 3°2.591 121.3 1.1 233 8.3
2009-07-09 08:01:34 51°18.205 3°2.59 121.1 1.1 239 8.1
2009-07-09 08:01:40 51°18.204 3°2.587 120.9 1.2 231 8.1
2009-07-09 08:01:45 51°18.203 3°2.586 121.5 0.8 244 8
2009-07-09 08:01:50 51°18.202 3°2.583 120.6 1.3 230 8.1
2009-07-09 08:01:54 51°18.202 3°2.582 121 0.9 240 8.1
2009-07-09 08:02:00 51°18.2 3°2.579 121.3 1.3 233 8.1
2009-07-09 08:02:05 51°18.2 3°2.577 121.5 1 238 8.2
2009-07-09 08:02:10 51°18.199 3°2.575 121.4 1.3 234 8
2009-07-09 08:02:14 51°18.198 3°2.574 122.1 0.9 239 8.1
2009-07-09 08:02:20 51°18.197 3°2.571 121.9 1.2 233 8.1
2009-07-09 08:02:25 51°18.196 3°2.569 122 1.1 237 8.1
2009-07-09 08:02:30 51°18.196 3°2.567 122.5 1.2 234 8
2009-07-09 08:02:35 51°18.195 3°2.565 122.7 1.1 235 8.2
2009-07-09 08:02:39 51°18.194 3°2.564 122.6 1.3 235 8
2009-07-09 08:02:45 51°18.193 3°2.561 123.3 1.1 231 7.9
2009-07-09 08:02:50 51°18.192 3°2.559 123.3 1.1 232 7.8
2009-07-09 08:02:54 51°18.191 3°2.557 123.5 1.1 228 8.1
2009-07-09 08:03:00 51°18.19 3°2.555 122.6 1.1 233 8.2
2009-07-09 08:03:05 51°18.189 3°2.553 122.7 1.4 229 8.2
2009-07-09 08:03:10 51°18.188 3°2.552 123.4 0.7 241 7.9
2009-07-09 08:03:14 51°18.187 3°2.55 122.7 1.4 228 8.2
2009-07-09 08:03:19 51°18.187 3°2.548 122.7 0.8 244 8.1
2009-07-09 08:03:25 51°18.185 3°2.545 122.5 1.6 228 8.3
2009-07-09 08:03:30 51°18.185 3°2.544 123.4 0.8 244 8.1
2009-07-09 08:03:34 51°18.183 3°2.542 122.7 1.7 227 8.3
2009-07-09 08:03:40 51°18.183 3°2.54 122.9 0.6 252 7.9
2009-07-09 08:03:44 51°18.181 3°2.538 122.9 1.6 228 8.3
2009-07-09 08:03:50 51°18.181 3°2.536 123 1 240 8.1
2009-07-09 08:03:54 51°18.18 3°2.534 123 1.4 228 8.2
2009-07-09 08:04:00 51°18.179 3°2.532 122.7 0.8 247 8
2009-07-09 08:04:05 51°18.178 3°2.529 122.4 1.5 227 8.3
2009-07-09 08:04:10 51°18.178 3°2.528 122.8 1 240 7.9
2009-07-09 08:04:14 51°18.176 3°2.526 123 1.5 227 8.1
2009-07-09 08:04:20 51°18.176 3°2.524 122.5 0.9 240 7.9